Historyczne dane pomiarowe

Dodano dane terminowe – wersja testowa.

Dane z okresu 1951-2019

Wersja bazy: 1.34 [2019-03-16, lista zmian], aktualizacja planowana na 2019-04-15

Dane meteo z obszaru Polski uzyskane na podstawie danych udostępnionych przez Instytut Meteorologii i Gospodarki Wodnej – Państwowy Instytut Badawczy.

 

Wybierz Datę:    

       

TemperaturaWilgotnośćWiatrCiśnienieOpadyŚniegCzas trwania zjawisk
 Stacja t tx tn tng RH VA  wxwx mslp ppp RRR   cm mm wxwxwxwxwxwxwx
1984-06-13 16.0 21.4 7.1 5.0 61.0 11.2- 2.8--1012.7- 2.3--x- 0.3-------
1984-06-14 15.3 20.0 13.6 13.7 89.0 15.3- 4.3--1006.9- 5.1--x- 1.5-------
1984-06-15 12.7 16.6 10.4 9.8 75.0 11.0- 4.8--1008.3- 1.4--x- 0.8-------
1984-06-16 13.0 16.1 11.2 10.6 85.0 12.6- 3.2--1010.9- 0.8--x- 1.1-------
1984-06-17 14.6 18.8 11.1 10.4 75.0 12.2- 1.8--1013.3- 0.2--x- 7.5-------
1984-06-18 15.8 20.0 12.9 12.6 80.0 14.0- 0.8--1017.4- 0.0--x- 0.8-------
1984-06-19 17.1 23.7 9.6 7.7 74.0 13.9- 1.5--1018.4- 0.0--x- 12.4-------
1984-06-20 18.9 25.8 12.0 9.6 71.0 15.0- 1.6--1012.3- 0.0--x- 12.2-------
1984-06-21 20.4 26.7 14.8 11.7 70.0 16.3- 2.0--1001.3- 0.0--x- 7.8-------
1984-06-22 16.6 21.8 14.1 13.9 69.0 12.8- 3.6--1002.4- 1.6--x- 7.9-------
1984-06-23 14.1 18.2 11.5 11.7 69.0 11.0- 6.3-- 998.2- 1.8--x- 6.3-------
1984-06-24 11.6 16.1 7.3 6.1 64.0 8.6- 5.8--1001.5- 0.0--x- 5.4-------
1984-06-25 11.2 13.9 9.5 9.1 72.0 9.6- 5.9--1003.5- 8.4--x- 0.5-------
1984-06-26 12.2 16.8 9.6 9.2 82.0 11.6- 5.3--1006.5- 0.8--x- 1.6-------
1984-06-27 15.8 20.4 11.6 10.6 71.0 12.6- 4.4--1007.6- 0.0--x- 5.9-------
1984-06-28 15.1 19.1 12.7 11.6 73.0 12.3- 2.9--1002.3- 0.0--x- 1.7-------
1984-06-29 12.3 17.2 10.3 8.1 68.0 9.5- 3.5--1003.5- 0.0--x- 6.2-------
1984-06-30 10.8 15.9 7.3 5.0 79.0 10.1- 3.6--1005.4- 1.6--x- 8.0-------
1984-07-01 12.3 17.3 9.2 8.4 77.0 10.8- 3.4--1010.4- 0.0--x- 4.7-------
1984-07-02 12.6 16.7 8.5 6.5 82.0 12.1- 1.3--1004.8- 1.2--x- 1.8-------
1984-07-03 11.1 15.2 10.0 7.4 90.0 11.8- 3.0--1005.8- 2.9--x- 0.9-------
1984-07-04 11.6 14.0 9.6 8.9 85.0 11.6- 3.2--1010.7- 0.0--x- 0.4-------
1984-07-05 11.9 15.0 9.0 7.9 82.0 11.4- 3.5--1011.1- 0.0--x- 0.3-------
1984-07-06 12.7 16.9 10.7 10.5 82.0 11.9- 3.7--1011.3- 0.0--x- 3.6-------
1984-07-07 14.6 20.9 10.8 10.1 74.0 11.8- 1.2--1014.9- 0.0--x- 7.1-------
1984-07-08 18.0 25.6 8.0 5.0 58.0 11.2- 2.3--1014.3- 0.0--x- 15.0-------
1984-07-09 21.4 29.0 11.7 8.1 52.0 12.0- 2.4--1009.8- 0.0--x- 15.2-------
1984-07-10 24.6 34.5 14.1 10.3 56.0 16.0- 1.7--1007.0- 0.0--x- 14.2-------
1984-07-11 28.8 37.2 18.6 16.2 48.0 17.0- 3.3--1004.5- 0.0--x- 14.0-------
1984-07-12 24.6 33.5 23.0 21.6 53.0 16.3- 4.0--1007.9- 0.0--x- 11.9-------
252.7 ms

 

Źródłem pochodzenia danych jest Instytut Meteorologii i Gospodarki Wodnej – Państwowy Instytut Badawczy. Dane Instytutu Meteorologii i Gospodarki Wodnej – Państwowego Instytutu Badawczego zostały przetworzone.

Dane źródłowe można odnaleźć na stronie https://dane.imgw.pl